createdAt,value
2023-05-02T18:43:53.380Z,0.32
2023-05-02T18:45:13.487Z,0.27
2023-05-02T18:46:14.522Z,0.21
2023-05-02T18:47:14.445Z,0.32
2023-05-02T18:48:14.439Z,0.32
2023-05-02T18:49:15.382Z,0.21
2023-05-02T18:50:14.436Z,0.27
2023-05-02T18:51:14.410Z,0.27
2023-05-02T18:52:14.387Z,0.32
2023-05-02T18:53:14.416Z,0.27
2023-05-02T18:54:14.416Z,0.32
2023-05-02T18:55:14.376Z,0.32
2023-05-02T18:56:14.378Z,0.32
2023-05-02T18:57:14.337Z,0.32
2023-05-02T18:58:14.334Z,0.27
2023-05-02T18:59:14.718Z,0.32
2023-05-02T19:06:14.512Z,0.43
2023-05-02T19:07:15.419Z,33.41
2023-05-02T19:08:15.737Z,32.33
2023-05-02T19:09:15.402Z,35.61
2023-05-02T19:10:15.392Z,33.30
2023-05-02T19:11:15.392Z,37.81
2023-05-02T19:12:15.350Z,38.94
2023-05-02T19:13:15.351Z,37.81
2023-05-02T19:14:16.238Z,33.25
2023-05-02T19:15:15.328Z,34.48
2023-05-02T19:16:15.487Z,35.66
2023-05-02T19:17:15.309Z,37.81
2023-05-02T19:18:15.286Z,34.48
2023-05-02T19:19:15.992Z,38.94
2023-05-02T19:20:15.323Z,40.12
2023-05-02T19:21:15.340Z,38.94
2023-05-02T19:22:15.332Z,38.94
2023-05-02T19:23:20.131Z,38.99
2023-05-02T19:24:15.345Z,38.99
2023-05-02T19:25:15.264Z,38.94
2023-05-02T19:26:15.288Z,40.18
2023-05-02T19:27:15.266Z,35.61
2023-05-02T19:28:15.237Z,40.07
2023-05-02T19:29:15.636Z,38.99
2023-05-02T19:30:15.230Z,37.76
2023-05-02T19:31:15.266Z,34.43
2023-05-02T19:32:15.295Z,38.99
2023-05-02T19:33:15.183Z,37.81
2023-05-02T19:34:15.215Z,34.43
2023-05-02T19:35:15.153Z,37.81
2023-05-02T19:36:15.163Z,34.43
2023-05-02T19:37:15.161Z,35.61
2023-05-02T19:38:15.116Z,38.94
2023-05-02T19:39:15.249Z,35.61
2023-05-02T19:40:15.101Z,37.81
2023-05-02T19:41:15.481Z,36.58
2023-05-02T19:42:15.137Z,35.72
2023-05-02T19:43:15.106Z,38.99
2023-05-02T19:44:15.131Z,35.66
2023-05-02T19:45:15.066Z,38.99
2023-05-02T19:46:15.134Z,34.43
2023-05-02T19:47:15.046Z,34.43
2023-05-02T19:48:15.081Z,37.76
2023-05-02T19:49:15.054Z,38.94
2023-05-02T19:50:15.037Z,35.72
2023-05-02T19:51:15.011Z,38.99
2023-05-02T19:52:15.004Z,37.81
2023-05-02T19:53:14.987Z,37.87
2023-05-02T19:54:15.012Z,35.66
2023-05-02T19:55:14.967Z,38.94
2023-05-02T19:56:14.958Z,35.66
2023-05-02T19:57:14.952Z,35.61
2023-05-02T19:58:14.933Z,36.58
2023-05-02T19:59:14.969Z,35.66
2023-05-02T20:00:14.923Z,38.94
2023-05-02T20:01:15.010Z,34.54
2023-05-02T20:02:14.949Z,36.58
2023-05-02T20:03:14.952Z,37.81
2023-05-02T20:04:14.900Z,34.54
2023-05-02T20:05:14.867Z,36.63
2023-05-02T20:06:14.893Z,36.63
2023-05-02T20:07:14.849Z,37.76
2023-05-02T20:08:14.829Z,36.58
2023-05-02T20:09:14.840Z,38.99
2023-05-02T20:10:14.837Z,38.94
2023-05-02T20:11:14.803Z,36.58
2023-05-02T20:12:14.786Z,34.48
2023-05-02T20:13:14.800Z,35.61
2023-05-02T20:14:14.801Z,37.81
2023-05-02T20:15:14.764Z,35.66
2023-05-02T20:16:14.806Z,35.61
2023-05-02T20:17:14.730Z,38.99
2023-05-02T20:18:14.812Z,36.68
2023-05-02T20:19:16.406Z,36.20
2023-05-02T20:20:14.716Z,36.63
2023-05-02T20:21:14.738Z,38.94
2023-05-02T20:22:14.701Z,35.66
2023-05-02T20:23:14.677Z,35.72
2023-05-02T20:24:14.684Z,34.54
2023-05-02T20:25:14.654Z,36.63
2023-05-02T20:26:14.638Z,37.81
2023-05-02T20:27:14.634Z,36.58
2023-05-02T20:28:14.613Z,36.58
2023-05-02T20:29:14.647Z,35.61
2023-05-02T20:30:14.585Z,35.61
2023-05-02T20:31:14.592Z,37.76
2023-05-02T20:32:14.609Z,35.61
2023-05-02T20:33:16.624Z,37.81
2023-05-02T20:34:14.625Z,35.66
2023-05-02T20:35:14.549Z,36.58
2023-05-02T20:36:14.538Z,35.61
2023-05-02T20:37:14.525Z,37.76
2023-05-02T20:38:14.508Z,35.66
2023-05-02T20:39:14.537Z,37.81
2023-05-02T20:40:14.495Z,38.94
2023-05-02T20:41:14.491Z,38.99
2023-05-02T20:42:14.467Z,37.81
2023-05-02T20:43:14.452Z,35.61
2023-05-02T20:44:14.463Z,35.66
2023-05-02T20:45:14.437Z,36.63
2023-05-02T20:46:14.455Z,36.58
2023-05-02T20:47:14.426Z,38.99
2023-05-02T20:48:14.615Z,36.63
2023-05-02T20:49:14.425Z,34.43
2023-05-02T20:50:14.388Z,37.76
2023-05-02T20:51:14.377Z,35.61
2023-05-02T20:52:14.366Z,34.43
2023-05-02T20:53:14.364Z,37.81
2023-05-02T20:54:14.361Z,37.81
2023-05-02T20:55:14.340Z,36.68
2023-05-02T20:56:14.338Z,38.99
2023-05-02T20:57:14.316Z,35.66
2023-05-02T20:58:14.308Z,35.66
2023-05-02T20:59:14.666Z,35.61
2023-05-02T21:00:14.309Z,37.60
2023-05-02T21:01:14.293Z,38.94
2023-05-02T21:02:14.260Z,37.87
2023-05-02T21:03:14.309Z,35.61
2023-05-02T21:04:15.085Z,37.81
2023-05-02T21:05:14.232Z,36.63
2023-05-02T21:06:14.276Z,35.66
2023-05-02T21:07:14.218Z,35.61
2023-05-02T21:08:14.198Z,37.81
2023-05-02T21:09:14.212Z,34.43
2023-05-02T21:10:14.182Z,37.81
2023-05-02T21:11:14.190Z,37.81
2023-05-02T21:12:14.157Z,36.58
2023-05-02T21:13:14.149Z,37.81
2023-05-02T21:14:14.459Z,36.63
2023-05-02T21:15:14.138Z,38.99
2023-05-02T21:16:14.121Z,36.31
2023-05-02T21:17:14.115Z,36.63
2023-05-02T21:18:14.132Z,37.81
2023-05-02T21:19:14.930Z,35.61
2023-05-02T21:20:14.108Z,34.43
2023-05-02T21:21:14.070Z,38.94
2023-05-02T21:22:14.069Z,36.63
2023-05-02T21:23:14.053Z,34.48
2023-05-02T21:24:14.081Z,35.66
2023-05-02T21:25:14.026Z,37.81
2023-05-02T21:26:14.011Z,34.38
2023-05-02T21:27:14.032Z,37.81
2023-05-02T21:28:14.032Z,37.81
2023-05-02T21:29:14.375Z,35.66
2023-05-02T21:30:13.978Z,38.99
2023-05-02T21:31:13.978Z,34.43
2023-05-02T21:32:14.183Z,35.61
2023-05-02T21:33:13.939Z,37.76
2023-05-02T21:34:14.683Z,38.94
2023-05-02T21:35:13.974Z,37.81
2023-05-02T21:36:13.906Z,37.76
2023-05-02T21:37:13.902Z,37.76
2023-05-02T21:38:13.887Z,37.76
2023-05-02T21:39:14.276Z,38.99
2023-05-02T21:40:13.900Z,37.87
2023-05-02T21:41:13.895Z,37.81
2023-05-02T21:42:13.883Z,36.58
2023-05-02T21:43:13.845Z,37.81
2023-05-02T21:44:14.137Z,35.66
2023-05-02T21:45:13.814Z,34.48
2023-05-02T21:46:13.839Z,37.81
2023-05-02T21:47:13.837Z,35.61
2023-05-02T21:48:13.908Z,36.63
2023-05-02T21:49:14.576Z,38.94
2023-05-02T21:50:13.760Z,36.58
2023-05-02T21:51:13.758Z,37.87
2023-05-02T21:52:13.745Z,38.99
2023-05-02T21:53:13.736Z,37.81
2023-05-02T21:54:13.899Z,37.81
2023-05-02T21:55:13.711Z,34.48
2023-05-02T21:56:13.720Z,37.81
2023-05-02T21:57:13.683Z,36.63
2023-05-02T21:58:13.685Z,35.61
2023-05-02T21:59:13.682Z,36.63
2023-05-02T22:00:13.674Z,38.24
2023-05-02T22:01:13.658Z,38.94
2023-05-02T22:02:13.683Z,38.99
2023-05-02T22:03:13.652Z,38.94
2023-05-02T22:04:14.240Z,34.48
2023-05-02T22:05:13.633Z,34.43
2023-05-02T22:06:13.617Z,36.63
2023-05-02T22:07:13.589Z,34.38
2023-05-02T22:08:13.577Z,36.58
2023-05-02T22:09:13.784Z,34.48
2023-05-02T22:10:13.586Z,37.81
2023-05-02T22:11:13.540Z,37.81
2023-05-02T22:12:13.536Z,37.76
2023-05-02T22:13:13.523Z,33.25
2023-05-02T22:14:13.833Z,34.48
2023-05-02T22:15:13.502Z,36.63
2023-05-02T22:16:13.528Z,35.61
2023-05-02T22:17:13.492Z,38.94
2023-05-02T22:18:13.471Z,37.87
2023-05-02T22:19:13.980Z,38.94
2023-05-02T22:20:13.463Z,34.48
2023-05-02T22:21:13.466Z,36.63
2023-05-02T22:22:13.429Z,34.48
2023-05-02T22:23:13.415Z,39.05
2023-05-02T22:24:13.761Z,35.61
2023-05-02T22:25:13.400Z,35.72
2023-05-02T22:26:13.388Z,36.63
2023-05-02T22:27:13.373Z,35.66
2023-05-02T22:28:13.379Z,38.89
2023-05-02T22:29:13.688Z,37.87
2023-05-02T22:30:13.358Z,34.43
2023-05-02T22:31:13.334Z,39.05
2023-05-02T22:32:13.476Z,34.43
2023-05-02T22:33:13.333Z,36.63
2023-05-02T22:34:13.351Z,35.66
2023-05-02T22:35:13.299Z,36.63
2023-05-02T22:36:13.280Z,35.66
2023-05-02T22:37:13.281Z,37.81
2023-05-02T22:38:13.271Z,35.61
2023-05-02T22:39:13.273Z,38.99
2023-05-02T22:40:13.256Z,36.58
2023-05-02T22:41:13.250Z,37.87
2023-05-02T22:42:13.248Z,35.66
2023-05-02T22:43:13.236Z,37.87
2023-05-02T22:44:13.569Z,37.81
2023-05-02T22:45:13.192Z,37.87
2023-05-02T22:46:13.205Z,34.48
2023-05-02T22:47:13.179Z,36.63
2023-05-02T22:48:13.234Z,38.99
2023-05-02T22:49:13.855Z,39.05
2023-05-02T22:50:13.154Z,35.66
2023-05-02T22:51:13.124Z,35.66
2023-05-02T22:52:13.126Z,34.48
2023-05-02T22:53:13.107Z,34.64
2023-05-02T22:54:13.426Z,36.63
2023-05-02T22:55:13.091Z,36.63
2023-05-02T22:56:13.088Z,35.61
2023-05-02T22:57:13.077Z,40.18
2023-05-02T22:58:13.061Z,36.63
2023-05-02T22:59:13.076Z,35.66
2023-05-02T23:00:13.043Z,38.94
2023-05-02T23:01:13.057Z,34.38
2023-05-02T23:02:13.180Z,34.48
2023-05-02T23:03:13.181Z,38.99
2023-05-02T23:04:13.893Z,34.43
2023-05-02T23:05:13.132Z,38.94
2023-05-02T23:06:12.997Z,36.58
2023-05-02T23:07:12.963Z,37.81
2023-05-02T23:08:12.956Z,37.81
2023-05-02T23:09:13.308Z,35.66
2023-05-02T23:10:12.930Z,34.48
2023-05-02T23:11:12.919Z,40.18
2023-05-02T23:12:12.912Z,38.99
2023-05-02T23:13:12.893Z,37.76
2023-05-02T23:14:13.397Z,38.89
2023-05-02T23:15:12.895Z,38.94
2023-05-02T23:16:12.936Z,34.48
2023-05-02T23:17:12.852Z,35.61
2023-05-02T23:18:13.041Z,37.81
2023-05-02T23:19:12.856Z,35.72
2023-05-02T23:20:12.863Z,34.48
2023-05-02T23:21:12.818Z,37.81
2023-05-02T23:22:12.804Z,35.66
2023-05-02T23:23:12.792Z,35.66
2023-05-02T23:24:13.141Z,38.99
2023-05-02T23:25:12.778Z,38.99
2023-05-02T23:26:12.798Z,36.63
2023-05-02T23:27:12.753Z,40.18
2023-05-02T23:28:12.777Z,35.61
2023-05-02T23:29:13.091Z,37.87
2023-05-02T23:30:12.764Z,35.66
2023-05-02T23:31:12.764Z,37.97
2023-05-02T23:32:12.710Z,35.66
2023-05-02T23:33:12.782Z,36.63
2023-05-02T23:34:13.633Z,35.72
2023-05-02T23:35:12.691Z,35.61
2023-05-02T23:36:12.662Z,35.56
2023-05-02T23:37:12.646Z,38.99
2023-05-02T23:38:12.651Z,37.87
2023-05-02T23:39:12.910Z,36.58
2023-05-02T23:40:12.623Z,38.94
2023-05-02T23:41:12.605Z,38.94
2023-05-02T23:42:12.605Z,38.94
2023-05-02T23:43:12.585Z,34.48
2023-05-02T23:44:13.035Z,39.05
2023-05-02T23:45:12.567Z,37.87
2023-05-02T23:46:12.641Z,35.61
2023-05-02T23:47:12.618Z,38.99
2023-05-02T23:48:12.534Z,37.81
2023-05-02T23:49:13.375Z,38.99
2023-05-02T23:50:12.530Z,35.66
2023-05-02T23:51:12.504Z,38.94
2023-05-02T23:52:12.499Z,40.12
2023-05-02T23:53:12.478Z,35.66
2023-05-02T23:54:12.819Z,40.07
2023-05-02T23:55:12.470Z,35.56
2023-05-02T23:56:12.454Z,36.58
2023-05-02T23:57:12.438Z,37.81
2023-05-02T23:58:12.443Z,35.66
2023-05-02T23:59:12.734Z,34.43
